sensor_id;sensor_type;location;lat;lon;timestamp;pressure;altitude;pressure_sealevel;temperature;humidity
62436;BME280;48480;50.252;18.848;2023-04-25T00:00:12;97619.23;;;11.75;80.83
62436;BME280;48480;50.252;18.848;2023-04-25T00:02:56;97626.40;;;11.70;81.04
62436;BME280;48480;50.252;18.848;2023-04-25T00:05:40;97623.95;;;11.64;81.40
62436;BME280;48480;50.252;18.848;2023-04-25T00:08:25;97622.96;;;11.59;81.75
62436;BME280;48480;50.252;18.848;2023-04-25T00:11:09;97625.51;;;11.57;82.15
62436;BME280;48480;50.252;18.848;2023-04-25T00:13:54;97625.00;;;11.55;82.16
62436;BME280;48480;50.252;18.848;2023-04-25T00:16:38;97622.89;;;11.51;82.16
62436;BME280;48480;50.252;18.848;2023-04-25T00:19:23;97621.60;;;11.40;82.35
62436;BME280;48480;50.252;18.848;2023-04-25T00:22:07;97623.20;;;11.35;82.87
62436;BME280;48480;50.252;18.848;2023-04-25T00:24:51;97623.21;;;11.33;83.09
62436;BME280;48480;50.252;18.848;2023-04-25T00:27:36;97622.79;;;11.34;83.35
62436;BME280;48480;50.252;18.848;2023-04-25T00:30:22;97619.75;;;11.32;83.33
62436;BME280;48480;50.252;18.848;2023-04-25T00:33:07;97620.27;;;11.28;83.63
62436;BME280;48480;50.252;18.848;2023-04-25T00:35:52;97615.50;;;11.31;83.90
62436;BME280;48480;50.252;18.848;2023-04-25T00:38:36;97617.63;;;11.36;83.80
62436;BME280;48480;50.252;18.848;2023-04-25T00:41:22;97618.52;;;11.35;83.55
62436;BME280;48480;50.252;18.848;2023-04-25T00:44:08;97621.02;;;11.34;83.70
62436;BME280;48480;50.252;18.848;2023-04-25T00:46:54;97623.67;;;11.29;83.53
62436;BME280;48480;50.252;18.848;2023-04-25T00:49:38;97625.85;;;11.25;83.71
62436;BME280;48480;50.252;18.848;2023-04-25T00:52:22;97629.52;;;11.17;83.78
62436;BME280;48480;50.252;18.848;2023-04-25T00:55:07;97630.45;;;11.09;84.01
62436;BME280;48480;50.252;18.848;2023-04-25T00:57:51;97629.65;;;11.05;84.09
62436;BME280;48480;50.252;18.848;2023-04-25T01:00:36;97632.20;;;11.01;83.86
62436;BME280;48480;50.252;18.848;2023-04-25T01:03:20;97635.26;;;11.01;83.99
62436;BME280;48480;50.252;18.848;2023-04-25T01:06:04;97632.76;;;11.07;84.12
62436;BME280;48480;50.252;18.848;2023-04-25T01:08:48;97636.20;;;11.12;83.61
62436;BME280;48480;50.252;18.848;2023-04-25T01:11:32;97635.27;;;11.12;82.77
62436;BME280;48480;50.252;18.848;2023-04-25T01:14:16;97641.33;;;11.12;82.13
62436;BME280;48480;50.252;18.848;2023-04-25T01:17:01;97640.69;;;11.13;81.80
62436;BME280;48480;50.252;18.848;2023-04-25T01:19:45;97639.13;;;11.18;81.42
62436;BME280;48480;50.252;18.848;2023-04-25T01:22:33;97641.20;;;11.17;80.94
62436;BME280;48480;50.252;18.848;2023-04-25T01:25:18;97643.62;;;11.13;80.18
62436;BME280;48480;50.252;18.848;2023-04-25T01:28:03;97647.85;;;11.11;79.61
62436;BME280;48480;50.252;18.848;2023-04-25T01:30:47;97649.97;;;11.08;79.04
62436;BME280;48480;50.252;18.848;2023-04-25T01:33:31;97654.66;;;11.03;78.43
62436;BME280;48480;50.252;18.848;2023-04-25T01:36:15;97657.10;;;10.98;77.94
62436;BME280;48480;50.252;18.848;2023-04-25T01:39:01;97662.27;;;10.94;77.59
62436;BME280;48480;50.252;18.848;2023-04-25T01:41:46;97663.27;;;10.92;77.15
62436;BME280;48480;50.252;18.848;2023-04-25T01:44:31;97663.05;;;10.89;77.08
62436;BME280;48480;50.252;18.848;2023-04-25T01:47:15;97662.80;;;10.88;77.27
62436;BME280;48480;50.252;18.848;2023-04-25T01:49:59;97662.83;;;10.89;77.00
62436;BME280;48480;50.252;18.848;2023-04-25T01:52:44;97664.81;;;10.89;76.65
62436;BME280;48480;50.252;18.848;2023-04-25T01:55:28;97665.14;;;10.90;76.64
62436;BME280;48480;50.252;18.848;2023-04-25T01:58:12;97668.33;;;10.91;76.73
62436;BME280;48480;50.252;18.848;2023-04-25T02:00:56;97668.71;;;10.91;76.63
62436;BME280;48480;50.252;18.848;2023-04-25T02:03:41;97669.27;;;10.91;76.91
62436;BME280;48480;50.252;18.848;2023-04-25T02:06:25;97668.75;;;10.88;76.87
62436;BME280;48480;50.252;18.848;2023-04-25T02:09:08;97669.48;;;10.81;77.05
62436;BME280;48480;50.252;18.848;2023-04-25T02:11:52;97673.41;;;10.77;77.39
62436;BME280;48480;50.252;18.848;2023-04-25T02:14:37;97677.72;;;10.71;77.48
62436;BME280;48480;50.252;18.848;2023-04-25T02:17:21;97675.63;;;10.60;77.83
62436;BME280;48480;50.252;18.848;2023-04-25T02:20:06;97677.10;;;10.51;78.28
62436;BME280;48480;50.252;18.848;2023-04-25T02:22:51;97675.10;;;10.46;78.22
62436;BME280;48480;50.252;18.848;2023-04-25T02:25:35;97675.27;;;10.40;77.93
62436;BME280;48480;50.252;18.848;2023-04-25T02:28:19;97674.23;;;10.36;77.77
62436;BME280;48480;50.252;18.848;2023-04-25T02:31:03;97675.05;;;10.37;77.86
62436;BME280;48480;50.252;18.848;2023-04-25T02:33:47;97671.99;;;10.40;77.74
62436;BME280;48480;50.252;18.848;2023-04-25T02:36:32;97674.48;;;10.37;77.69
62436;BME280;48480;50.252;18.848;2023-04-25T02:39:18;97674.83;;;10.29;77.53
62436;BME280;48480;50.252;18.848;2023-04-25T02:42:02;97675.02;;;10.26;77.62
62436;BME280;48480;50.252;18.848;2023-04-25T02:44:46;97675.63;;;10.21;77.40
62436;BME280;48480;50.252;18.848;2023-04-25T02:47:30;97677.58;;;10.15;77.12
62436;BME280;48480;50.252;18.848;2023-04-25T02:50:15;97680.19;;;10.13;77.39
62436;BME280;48480;50.252;18.848;2023-04-25T02:52:59;97677.86;;;10.15;76.97
62436;BME280;48480;50.252;18.848;2023-04-25T02:55:43;97677.73;;;10.17;76.82
62436;BME280;48480;50.252;18.848;2023-04-25T02:58:27;97674.64;;;10.19;76.71
62436;BME280;48480;50.252;18.848;2023-04-25T03:01:11;97675.70;;;10.21;76.36
62436;BME280;48480;50.252;18.848;2023-04-25T03:03:55;97673.08;;;10.21;76.05
62436;BME280;48480;50.252;18.848;2023-04-25T03:06:39;97671.91;;;10.18;75.52
62436;BME280;48480;50.252;18.848;2023-04-25T03:09:23;97670.05;;;10.15;75.39
62436;BME280;48480;50.252;18.848;2023-04-25T03:12:07;97667.27;;;10.14;75.45
62436;BME280;48480;50.252;18.848;2023-04-25T03:14:51;97667.00;;;10.11;75.10
62436;BME280;48480;50.252;18.848;2023-04-25T03:17:35;97666.36;;;10.09;75.09
62436;BME280;48480;50.252;18.848;2023-04-25T03:20:19;97668.95;;;10.11;74.92
62436;BME280;48480;50.252;18.848;2023-04-25T03:23:04;97670.45;;;10.13;74.59
62436;BME280;48480;50.252;18.848;2023-04-25T03:25:47;97669.73;;;10.12;74.26
62436;BME280;48480;50.252;18.848;2023-04-25T03:28:31;97673.67;;;10.09;74.51
62436;BME280;48480;50.252;18.848;2023-04-25T03:31:15;97680.77;;;10.06;74.30
62436;BME280;48480;50.252;18.848;2023-04-25T03:33:59;97680.98;;;10.03;74.22
62436;BME280;48480;50.252;18.848;2023-04-25T03:36:43;97685.45;;;10.04;73.93
62436;BME280;48480;50.252;18.848;2023-04-25T03:39:27;97686.44;;;10.06;73.96
62436;BME280;48480;50.252;18.848;2023-04-25T03:42:12;97686.58;;;10.07;73.69
62436;BME280;48480;50.252;18.848;2023-04-25T03:44:56;97685.17;;;10.07;73.48
62436;BME280;48480;50.252;18.848;2023-04-25T03:47:40;97685.44;;;10.05;73.21
62436;BME280;48480;50.252;18.848;2023-04-25T03:50:24;97686.67;;;10.04;73.20
62436;BME280;48480;50.252;18.848;2023-04-25T03:53:07;97687.09;;;10.04;73.35
62436;BME280;48480;50.252;18.848;2023-04-25T03:55:52;97690.40;;;10.03;72.75
62436;BME280;48480;50.252;18.848;2023-04-25T03:58:36;97692.50;;;10.02;72.81
62436;BME280;48480;50.252;18.848;2023-04-25T04:01:20;97693.20;;;9.98;72.82
62436;BME280;48480;50.252;18.848;2023-04-25T04:04:04;97691.67;;;9.96;72.83
62436;BME280;48480;50.252;18.848;2023-04-25T04:06:48;97695.20;;;9.96;72.79
62436;BME280;48480;50.252;18.848;2023-04-25T04:09:32;97701.40;;;9.94;72.41
62436;BME280;48480;50.252;18.848;2023-04-25T04:12:16;97700.51;;;9.92;72.40
62436;BME280;48480;50.252;18.848;2023-04-25T04:15:04;97690.99;;;9.87;72.51
62436;BME280;48480;50.252;18.848;2023-04-25T04:17:49;97698.19;;;9.87;72.54
62436;BME280;48480;50.252;18.848;2023-04-25T04:20:33;97710.01;;;9.93;72.60
62436;BME280;48480;50.252;18.848;2023-04-25T04:23:17;97711.86;;;9.93;72.52
62436;BME280;48480;50.252;18.848;2023-04-25T04:26:01;97712.48;;;9.95;72.54
62436;BME280;48480;50.252;18.848;2023-04-25T04:28:45;97711.44;;;9.98;72.62
62436;BME280;48480;50.252;18.848;2023-04-25T04:31:29;97713.83;;;9.99;72.36
62436;BME280;48480;50.252;18.848;2023-04-25T04:34:13;97715.77;;;10.02;72.74
62436;BME280;48480;50.252;18.848;2023-04-25T04:36:57;97714.10;;;10.04;72.46
62436;BME280;48480;50.252;18.848;2023-04-25T04:39:41;97714.80;;;10.07;72.05
62436;BME280;48480;50.252;18.848;2023-04-25T04:42:25;97710.73;;;10.11;72.09
62436;BME280;48480;50.252;18.848;2023-04-25T04:45:10;97712.47;;;10.15;71.99
62436;BME280;48480;50.252;18.848;2023-04-25T04:47:54;97715.24;;;10.17;71.69
62436;BME280;48480;50.252;18.848;2023-04-25T04:50:39;97717.90;;;10.17;71.28
62436;BME280;48480;50.252;18.848;2023-04-25T04:53:23;97719.43;;;10.20;71.33
62436;BME280;48480;50.252;18.848;2023-04-25T04:56:08;97720.70;;;10.23;71.39
62436;BME280;48480;50.252;18.848;2023-04-25T04:58:52;97721.55;;;10.23;71.00
62436;BME280;48480;50.252;18.848;2023-04-25T05:01:36;97720.44;;;10.20;70.61
62436;BME280;48480;50.252;18.848;2023-04-25T05:04:20;97718.63;;;10.16;70.44
62436;BME280;48480;50.252;18.848;2023-04-25T05:07:04;97717.21;;;10.12;70.45
62436;BME280;48480;50.252;18.848;2023-04-25T05:09:48;97716.80;;;10.16;70.53
62436;BME280;48480;50.252;18.848;2023-04-25T05:12:32;97715.04;;;10.23;70.23
62436;BME280;48480;50.252;18.848;2023-04-25T05:15:17;97717.02;;;10.23;69.79
62436;BME280;48480;50.252;18.848;2023-04-25T05:18:01;97722.31;;;10.23;69.52
62436;BME280;48480;50.252;18.848;2023-04-25T05:20:46;97720.58;;;10.22;69.00
62436;BME280;48480;50.252;18.848;2023-04-25T05:23:30;97718.34;;;10.25;69.34
62436;BME280;48480;50.252;18.848;2023-04-25T05:26:14;97720.39;;;10.31;69.03
62436;BME280;48480;50.252;18.848;2023-04-25T05:28:58;97718.73;;;10.36;68.82
62436;BME280;48480;50.252;18.848;2023-04-25T05:31:42;97719.41;;;10.41;68.49
62436;BME280;48480;50.252;18.848;2023-04-25T05:34:27;97722.61;;;10.46;68.31
62436;BME280;48480;50.252;18.848;2023-04-25T05:37:11;97723.46;;;10.49;67.89
62436;BME280;48480;50.252;18.848;2023-04-25T05:39:56;97723.02;;;10.47;67.12
62436;BME280;48480;50.252;18.848;2023-04-25T05:42:39;97722.30;;;10.40;67.36
62436;BME280;48480;50.252;18.848;2023-04-25T05:45:23;97722.58;;;10.37;67.49
62436;BME280;48480;50.252;18.848;2023-04-25T05:48:07;97725.46;;;10.36;67.18
62436;BME280;48480;50.252;18.848;2023-04-25T05:50:51;97722.42;;;10.34;67.48
62436;BME280;48480;50.252;18.848;2023-04-25T05:53:35;97727.14;;;10.38;67.36
62436;BME280;48480;50.252;18.848;2023-04-25T05:56:19;97729.10;;;10.33;66.84
62436;BME280;48480;50.252;18.848;2023-04-25T05:59:04;97730.80;;;10.31;67.09
62436;BME280;48480;50.252;18.848;2023-04-25T06:01:48;97727.16;;;10.32;67.34
62436;BME280;48480;50.252;18.848;2023-04-25T06:04:32;97730.35;;;10.38;67.51
62436;BME280;48480;50.252;18.848;2023-04-25T06:07:17;97733.60;;;10.47;67.00
62436;BME280;48480;50.252;18.848;2023-04-25T06:10:02;97740.86;;;10.55;66.69
62436;BME280;48480;50.252;18.848;2023-04-25T06:12:51;97740.66;;;10.60;65.77
62436;BME280;48480;50.252;18.848;2023-04-25T06:15:35;97741.05;;;10.58;65.12
62436;BME280;48480;50.252;18.848;2023-04-25T06:18:20;97736.80;;;10.59;65.29
62436;BME280;48480;50.252;18.848;2023-04-25T06:21:05;97738.91;;;10.58;64.77
62436;BME280;48480;50.252;18.848;2023-04-25T06:23:49;97734.82;;;10.55;64.86
62436;BME280;48480;50.252;18.848;2023-04-25T06:26:33;97735.79;;;10.59;64.98
62436;BME280;48480;50.252;18.848;2023-04-25T06:29:18;97739.15;;;10.63;65.10
62436;BME280;48480;50.252;18.848;2023-04-25T06:32:03;97741.93;;;10.70;65.25
62436;BME280;48480;50.252;18.848;2023-04-25T06:34:47;97745.64;;;10.83;65.01
62436;BME280;48480;50.252;18.848;2023-04-25T06:37:31;97744.33;;;10.87;64.23
62436;BME280;48480;50.252;18.848;2023-04-25T06:40:15;97747.19;;;10.88;63.94
62436;BME280;48480;50.252;18.848;2023-04-25T06:43:01;97745.16;;;10.92;64.05
62436;BME280;48480;50.252;18.848;2023-04-25T06:45:45;97744.69;;;11.01;64.02
62436;BME280;48480;50.252;18.848;2023-04-25T06:48:29;97744.77;;;11.14;63.75
62436;BME280;48480;50.252;18.848;2023-04-25T06:51:13;97748.23;;;11.22;63.40
62436;BME280;48480;50.252;18.848;2023-04-25T06:53:57;97746.04;;;11.25;63.20
62436;BME280;48480;50.252;18.848;2023-04-25T06:56:42;97742.78;;;11.32;63.12
62436;BME280;48480;50.252;18.848;2023-04-25T06:59:26;97737.77;;;11.38;62.98
62436;BME280;48480;50.252;18.848;2023-04-25T07:02:10;97738.75;;;11.46;62.75
62436;BME280;48480;50.252;18.848;2023-04-25T07:04:54;97736.66;;;11.50;62.34
62436;BME280;48480;50.252;18.848;2023-04-25T07:07:43;97736.73;;;11.55;62.18
62436;BME280;48480;50.252;18.848;2023-04-25T07:10:28;97736.30;;;11.64;62.05
62436;BME280;48480;50.252;18.848;2023-04-25T07:13:13;97735.38;;;11.69;61.21
62436;BME280;48480;50.252;18.848;2023-04-25T07:15:57;97734.86;;;11.73;61.21
62436;BME280;48480;50.252;18.848;2023-04-25T07:18:42;97735.66;;;11.79;60.91
62436;BME280;48480;50.252;18.848;2023-04-25T07:21:26;97733.34;;;11.84;60.63
62436;BME280;48480;50.252;18.848;2023-04-25T07:24:10;97733.05;;;11.92;60.57
62436;BME280;48480;50.252;18.848;2023-04-25T07:26:55;97733.09;;;11.96;60.08
62436;BME280;48480;50.252;18.848;2023-04-25T07:29:39;97736.00;;;11.93;59.82
62436;BME280;48480;50.252;18.848;2023-04-25T07:32:24;97738.30;;;11.93;59.52
62436;BME280;48480;50.252;18.848;2023-04-25T07:35:09;97735.35;;;11.87;59.32
62436;BME280;48480;50.252;18.848;2023-04-25T07:37:52;97741.64;;;11.82;59.00
62436;BME280;48480;50.252;18.848;2023-04-25T07:40:36;97745.58;;;11.82;59.12
62436;BME280;48480;50.252;18.848;2023-04-25T07:43:21;97742.77;;;11.86;59.02
62436;BME280;48480;50.252;18.848;2023-04-25T07:46:05;97739.58;;;11.95;59.00
62436;BME280;48480;50.252;18.848;2023-04-25T07:48:50;97740.66;;;12.12;58.79
62436;BME280;48480;50.252;18.848;2023-04-25T07:51:34;97741.27;;;12.32;58.07
62436;BME280;48480;50.252;18.848;2023-04-25T07:54:18;97742.65;;;12.53;57.47
62436;BME280;48480;50.252;18.848;2023-04-25T07:57:03;97741.89;;;12.71;56.44
62436;BME280;48480;50.252;18.848;2023-04-25T07:59:48;97737.50;;;12.96;56.28
62436;BME280;48480;50.252;18.848;2023-04-25T08:02:33;97736.33;;;13.28;55.76
62436;BME280;48480;50.252;18.848;2023-04-25T08:05:17;97735.33;;;13.45;55.29
62436;BME280;48480;50.252;18.848;2023-04-25T08:08:01;97738.42;;;13.67;55.01
62436;BME280;48480;50.252;18.848;2023-04-25T08:10:45;97739.13;;;13.82;54.26
62436;BME280;48480;50.252;18.848;2023-04-25T08:13:32;97737.73;;;13.90;53.31
62436;BME280;48480;50.252;18.848;2023-04-25T08:16:16;97735.45;;;13.95;53.17
62436;BME280;48480;50.252;18.848;2023-04-25T08:19:00;97737.95;;;14.00;52.65
62436;BME280;48480;50.252;18.848;2023-04-25T08:21:44;97740.00;;;13.99;52.64
62436;BME280;48480;50.252;18.848;2023-04-25T08:24:29;97738.33;;;14.00;52.70
62436;BME280;48480;50.252;18.848;2023-04-25T08:27:13;97734.33;;;14.00;52.66
62436;BME280;48480;50.252;18.848;2023-04-25T08:29:58;97732.79;;;14.00;52.01
62436;BME280;48480;50.252;18.848;2023-04-25T08:32:42;97735.27;;;13.97;51.90
62436;BME280;48480;50.252;18.848;2023-04-25T08:35:26;97735.31;;;14.04;51.91
62436;BME280;48480;50.252;18.848;2023-04-25T08:38:11;97735.95;;;14.26;51.67
62436;BME280;48480;50.252;18.848;2023-04-25T08:40:57;97737.92;;;14.61;50.35
62436;BME280;48480;50.252;18.848;2023-04-25T08:43:43;97740.91;;;15.01;49.55
62436;BME280;48480;50.252;18.848;2023-04-25T08:46:30;97740.60;;;15.31;48.11
62436;BME280;48480;50.252;18.848;2023-04-25T08:49:16;97737.87;;;15.52;47.36
62436;BME280;48480;50.252;18.848;2023-04-25T08:52:04;97737.64;;;15.63;46.26
62436;BME280;48480;50.252;18.848;2023-04-25T08:54:51;97742.68;;;15.65;46.07
62436;BME280;48480;50.252;18.848;2023-04-25T08:57:36;97743.27;;;15.57;46.14
62436;BME280;48480;50.252;18.848;2023-04-25T09:00:21;97745.34;;;15.45;46.01
62436;BME280;48480;50.252;18.848;2023-04-25T09:03:07;97739.00;;;15.28;46.03
62436;BME280;48480;50.252;18.848;2023-04-25T09:05:52;97738.73;;;15.10;46.25
62436;BME280;48480;50.252;18.848;2023-04-25T09:08:37;97737.40;;;14.94;46.21
62436;BME280;48480;50.252;18.848;2023-04-25T09:11:25;97735.58;;;14.91;46.04
62436;BME280;48480;50.252;18.848;2023-04-25T09:14:23;97733.68;;;14.93;45.88
62436;BME280;48480;50.252;18.848;2023-04-25T09:17:09;97735.93;;;14.94;45.83
62436;BME280;48480;50.252;18.848;2023-04-25T09:19:54;97735.48;;;14.99;45.48
62436;BME280;48480;50.252;18.848;2023-04-25T09:22:38;97737.27;;;15.04;45.71
62436;BME280;48480;50.252;18.848;2023-04-25T09:25:23;97740.80;;;15.09;46.00
62436;BME280;48480;50.252;18.848;2023-04-25T09:28:09;97740.42;;;15.09;45.35
62436;BME280;48480;50.252;18.848;2023-04-25T09:30:55;97739.95;;;14.98;44.37
62436;BME280;48480;50.252;18.848;2023-04-25T09:33:41;97741.67;;;14.72;44.31
62436;BME280;48480;50.252;18.848;2023-04-25T09:36:26;97735.58;;;14.52;44.52
62436;BME280;48480;50.252;18.848;2023-04-25T09:39:12;97734.27;;;14.35;44.70
62436;BME280;48480;50.252;18.848;2023-04-25T09:41:59;97736.63;;;14.20;45.39
62436;BME280;48480;50.252;18.848;2023-04-25T09:44:44;97739.42;;;14.13;45.77
62436;BME280;48480;50.252;18.848;2023-04-25T09:47:29;97739.34;;;14.10;45.80
62436;BME280;48480;50.252;18.848;2023-04-25T09:50:14;97739.60;;;14.07;45.88
62436;BME280;48480;50.252;18.848;2023-04-25T09:53:04;97735.65;;;13.94;45.46
62436;BME280;48480;50.252;18.848;2023-04-25T09:55:51;97742.95;;;13.85;44.92
62436;BME280;48480;50.252;18.848;2023-04-25T09:58:38;97746.88;;;13.81;44.25
62436;BME280;48480;50.252;18.848;2023-04-25T10:01:23;97741.19;;;13.67;43.96
62436;BME280;48480;50.252;18.848;2023-04-25T10:04:10;97736.11;;;13.52;44.98
62436;BME280;48480;50.252;18.848;2023-04-25T10:06:56;97734.94;;;13.51;45.33
62436;BME280;48480;50.252;18.848;2023-04-25T10:09:40;97734.69;;;13.51;45.99
62436;BME280;48480;50.252;18.848;2023-04-25T10:12:26;97734.75;;;13.57;46.69
62436;BME280;48480;50.252;18.848;2023-04-25T10:15:10;97736.02;;;13.63;46.52
62436;BME280;48480;50.252;18.848;2023-04-25T10:17:56;97733.44;;;13.61;46.43
62436;BME280;48480;50.252;18.848;2023-04-25T10:20:40;97732.79;;;13.63;45.72
62436;BME280;48480;50.252;18.848;2023-04-25T10:23:24;97729.98;;;13.51;46.06
62436;BME280;48480;50.252;18.848;2023-04-25T10:26:09;97733.59;;;13.42;46.65
62436;BME280;48480;50.252;18.848;2023-04-25T10:29:03;97732.16;;;13.40;46.78
62436;BME280;48480;50.252;18.848;2023-04-25T10:31:47;97733.69;;;13.40;46.79
62436;BME280;48480;50.252;18.848;2023-04-25T10:37:24;97734.95;;;13.49;45.71
62436;BME280;48480;50.252;18.848;2023-04-25T10:40:09;97733.34;;;13.52;44.56
62436;BME280;48480;50.252;18.848;2023-04-25T10:42:54;97733.84;;;13.53;44.14
62436;BME280;48480;50.252;18.848;2023-04-25T10:45:51;97731.58;;;13.49;43.93
62436;BME280;48480;50.252;18.848;2023-04-25T10:48:35;97731.14;;;13.47;44.28
62436;BME280;48480;50.252;18.848;2023-04-25T10:51:23;97732.27;;;13.52;44.65
62436;BME280;48480;50.252;18.848;2023-04-25T10:54:08;97730.13;;;13.57;44.29
62436;BME280;48480;50.252;18.848;2023-04-25T10:56:52;97732.63;;;13.55;44.02
62436;BME280;48480;50.252;18.848;2023-04-25T10:59:39;97733.39;;;13.55;44.09
62436;BME280;48480;50.252;18.848;2023-04-25T11:02:26;97735.11;;;13.60;44.08
62436;BME280;48480;50.252;18.848;2023-04-25T11:08:11;97729.11;;;13.49;43.88
62436;BME280;48480;50.252;18.848;2023-04-25T11:10:55;97727.73;;;13.47;44.35
62436;BME280;48480;50.252;18.848;2023-04-25T11:13:39;97726.52;;;13.54;44.45
62436;BME280;48480;50.252;18.848;2023-04-25T11:16:24;97730.77;;;13.55;44.70
62436;BME280;48480;50.252;18.848;2023-04-25T11:19:09;97730.52;;;13.47;45.12
62436;BME280;48480;50.252;18.848;2023-04-25T11:21:58;97735.65;;;13.42;45.65
62436;BME280;48480;50.252;18.848;2023-04-25T11:24:42;97736.77;;;13.44;45.59
62436;BME280;48480;50.252;18.848;2023-04-25T11:27:27;97735.42;;;13.46;45.69
62436;BME280;48480;50.252;18.848;2023-04-25T11:30:13;97735.20;;;13.47;45.81
62436;BME280;48480;50.252;18.848;2023-04-25T11:32:57;97738.10;;;13.48;45.71
62436;BME280;48480;50.252;18.848;2023-04-25T11:35:43;97742.02;;;13.48;45.89
62436;BME280;48480;50.252;18.848;2023-04-25T11:38:27;97740.59;;;13.43;45.49
62436;BME280;48480;50.252;18.848;2023-04-25T11:41:12;97740.55;;;13.31;45.39
62436;BME280;48480;50.252;18.848;2023-04-25T11:43:56;97742.48;;;13.24;45.48
62436;BME280;48480;50.252;18.848;2023-04-25T11:46:40;97740.48;;;13.18;45.33
62436;BME280;48480;50.252;18.848;2023-04-25T11:49:30;97741.13;;;13.20;45.47
62436;BME280;48480;50.252;18.848;2023-04-25T11:52:14;97743.05;;;13.26;45.61
62436;BME280;48480;50.252;18.848;2023-04-25T11:54:59;97741.11;;;13.35;45.69
62436;BME280;48480;50.252;18.848;2023-04-25T11:57:45;97743.10;;;13.41;44.98
62436;BME280;48480;50.252;18.848;2023-04-25T12:00:31;97741.09;;;13.31;44.67
62436;BME280;48480;50.252;18.848;2023-04-25T12:03:15;97743.07;;;13.31;44.93
62436;BME280;48480;50.252;18.848;2023-04-25T12:06:03;97739.43;;;13.30;44.89
62436;BME280;48480;50.252;18.848;2023-04-25T12:09:04;97737.52;;;13.26;44.87
62436;BME280;48480;50.252;18.848;2023-04-25T12:11:53;97736.89;;;13.23;44.98
62436;BME280;48480;50.252;18.848;2023-04-25T12:14:37;97738.08;;;13.11;44.93
62436;BME280;48480;50.252;18.848;2023-04-25T12:17:22;97737.20;;;13.03;45.14
62436;BME280;48480;50.252;18.848;2023-04-25T12:20:11;97736.50;;;12.99;45.15
62436;BME280;48480;50.252;18.848;2023-04-25T12:22:56;97735.48;;;12.99;45.06
62436;BME280;48480;50.252;18.848;2023-04-25T12:25:42;97734.35;;;13.00;44.91
62436;BME280;48480;50.252;18.848;2023-04-25T12:28:27;97735.21;;;13.00;44.81
62436;BME280;48480;50.252;18.848;2023-04-25T12:31:11;97735.48;;;13.05;45.13
62436;BME280;48480;50.252;18.848;2023-04-25T12:33:57;97736.87;;;13.19;45.28
62436;BME280;48480;50.252;18.848;2023-04-25T12:36:42;97737.90;;;13.29;45.17
62436;BME280;48480;50.252;18.848;2023-04-25T12:39:25;97740.67;;;13.39;44.93
62436;BME280;48480;50.252;18.848;2023-04-25T12:42:09;97742.00;;;13.41;44.25
62436;BME280;48480;50.252;18.848;2023-04-25T12:44:56;97741.60;;;13.36;44.29
62436;BME280;48480;50.252;18.848;2023-04-25T12:47:41;97742.48;;;13.38;44.53
62436;BME280;48480;50.252;18.848;2023-04-25T12:50:25;97741.58;;;13.42;44.53
62436;BME280;48480;50.252;18.848;2023-04-25T12:53:11;97734.27;;;13.39;44.24
62436;BME280;48480;50.252;18.848;2023-04-25T12:55:55;97726.22;;;13.40;44.13
62436;BME280;48480;50.252;18.848;2023-04-25T12:58:40;97721.21;;;13.47;44.30
62436;BME280;48480;50.252;18.848;2023-04-25T13:01:25;97726.64;;;13.53;44.26
62436;BME280;48480;50.252;18.848;2023-04-25T13:04:11;97720.40;;;13.38;44.21
62436;BME280;48480;50.252;18.848;2023-04-25T13:06:56;97720.44;;;13.30;44.04
62436;BME280;48480;50.252;18.848;2023-04-25T13:09:40;97725.87;;;13.22;44.49
62436;BME280;48480;50.252;18.848;2023-04-25T13:12:24;97723.44;;;13.16;44.65
62436;BME280;48480;50.252;18.848;2023-04-25T13:15:09;97726.71;;;13.18;45.07
62436;BME280;48480;50.252;18.848;2023-04-25T13:17:55;97729.45;;;13.24;45.05
62436;BME280;48480;50.252;18.848;2023-04-25T13:20:39;97721.48;;;13.35;45.18
62436;BME280;48480;50.252;18.848;2023-04-25T13:23:25;97717.98;;;13.40;44.77
62436;BME280;48480;50.252;18.848;2023-04-25T13:26:09;97715.41;;;13.49;44.96
62436;BME280;48480;50.252;18.848;2023-04-25T13:28:53;97716.55;;;13.59;44.54
62436;BME280;48480;50.252;18.848;2023-04-25T13:31:37;97715.83;;;13.65;43.96
62436;BME280;48480;50.252;18.848;2023-04-25T13:34:21;97715.48;;;13.71;43.77
62436;BME280;48480;50.252;18.848;2023-04-25T13:37:05;97720.03;;;13.79;43.64
62436;BME280;48480;50.252;18.848;2023-04-25T13:39:50;97721.27;;;13.87;43.63
62436;BME280;48480;50.252;18.848;2023-04-25T13:42:35;97721.48;;;13.93;43.64
62436;BME280;48480;50.252;18.848;2023-04-25T13:45:20;97719.13;;;13.99;43.30
62436;BME280;48480;50.252;18.848;2023-04-25T13:48:05;97715.46;;;14.05;43.33
62436;BME280;48480;50.252;18.848;2023-04-25T13:50:49;97718.30;;;14.13;43.30
62436;BME280;48480;50.252;18.848;2023-04-25T13:53:33;97717.60;;;14.16;42.90
62436;BME280;48480;50.252;18.848;2023-04-25T13:56:18;97715.07;;;14.17;43.10
62436;BME280;48480;50.252;18.848;2023-04-25T13:59:03;97715.91;;;14.25;43.65
62436;BME280;48480;50.252;18.848;2023-04-25T14:01:47;97724.00;;;14.38;43.67
62436;BME280;48480;50.252;18.848;2023-04-25T14:04:31;97721.17;;;14.44;42.93
62436;BME280;48480;50.252;18.848;2023-04-25T14:07:16;97715.73;;;14.50;43.03
62436;BME280;48480;50.252;18.848;2023-04-25T14:10:00;97718.39;;;14.60;42.76
62436;BME280;48480;50.252;18.848;2023-04-25T14:12:45;97719.65;;;14.66;42.31
62436;BME280;48480;50.252;18.848;2023-04-25T14:15:33;97715.20;;;14.67;41.95
62436;BME280;48480;50.252;18.848;2023-04-25T14:18:18;97713.70;;;14.64;42.28
62436;BME280;48480;50.252;18.848;2023-04-25T14:21:03;97715.83;;;14.76;42.70
62436;BME280;48480;50.252;18.848;2023-04-25T14:23:47;97713.06;;;14.87;42.54
62436;BME280;48480;50.252;18.848;2023-04-25T14:26:32;97711.99;;;14.92;42.56